Terminal Aerodrome Forecast
Issued by NWS Charleston, WV

Current Version | Previous Version | Text Only | Print | Product List | Glossary Off
Versions: 1 2 3 4 5 6 7 8 9 10 11 12 13 14 15 16 17 18 19 20 21

070
FTUS41 KRLX 031139
TAFBKW
TAF
KBKW 031139Z 0312/0412 17011G25KT 5SM SHRA OVC015
     FM031230 25010G25KT 2SM SHRA OVC008
     FM031330 23009G20KT 5SM SHRA BKN015
     FM031600 19008G17KT P6SM BKN015
     FM031800 22009G16KT P6SM BKN030
     FM032100 23010G16KT P6SM SCT060
     FM040700 28006KT P6SM BKN020=

USA.gov is the U.S. government's official web portal to all federal, state and local government web resources and services.